ولاية سيدي بلعباس, الجزائر

04:17 AM CET on أعس×س 04, 2015 (GMT +0100)
Es Senia | | Change Station
CLOSE
Current Station
Airport
Location: Oran,
Elevation: 295 ft
Nearby Weather Stations

Elev 295 ft 35.63 °N, 0.60 °W | Updated 17 minutes ago

Scattered Clouds
غيوم متفرقة
81 °F
Feels Like 88 °F
N
6
ريح متغير ريح from WSW

هذا اليوم
High -- | Low -- °F
--% Chance of Precip.
Yesterday
High -- | Low -- °F
Precip. -- في
6:13 AM 8:03 PM
الأحدب الأخير, 82% visible
الضغط 29.98 في
وضوح الرؤية 6.2 أميال
سحابات غيوم متفرقة 1000 ft
مؤشر الحرارة 88 °F
نقطة الندى 79 °F
الرطوبة 94%
Rainfall 0.00 في
عمق الثلج Not available.
الأشعة فوق البنفسجية 0 out of 12
Pollen Not available.
جودة الهواء Not available.
Flu Activity Not available.
METAR DAOO 040300Z 24005KT 9999 SCT010 27/26 Q1015

More Conditions Fewer Conditions

الضغط 29.98 في
وضوح الرؤية 6.2 أميال
سحابات غيوم متفرقة 1000 ft
مؤشر الحرارة 88 °F
نقطة الندى 79 °F
الرطوبة 94%
Rainfall 0.00 في
عمق الثلج Not available.
الأشعة فوق البنفسجية 0 out of 12
Pollen Not available.
جودة الهواء Not available.
Flu Activity Not available.
METAR DAOO 040300Z 24005KT 9999 SCT010 27/26 Q1015

More Conditions Fewer Conditions

10-Day Weather Forecast

×

Almanac

علم الفلك

Aug. 04, 2015 Rise Set
Actual Time
Civil Twilight
Nautical Twilight
Astronomical Twilight
قمر
Length Of Visible Light
طول الیوم
Tomorrow will be .
, % of the Moon is Illuminated

Today's Extremes

Country Highs Country Lows

Community

WunderPhotos

Upload Photos

1,843,842 photos uploaded!

WunderBlogs® & News

Nearby

جودة الهواء

  جودة الهواء AQ Index Pollutant
Not available.

عمق الثلج

Station Depth Elevation

Earthquake Activity

City Distance Mag. Time & Date
Minimum magnitude displayed is 2.5.

Coastal Water Temperatures

مكان درجات الحرارة

Stations

Nearby Weather Stations

Station Location الحرارة رياح باردة نقطة الندى الرطوبة ريح Precip. Elev تحديث Type